sensor_id;sensor_type;location;lat;lon;timestamp;P1;durP1;ratioP1;P2;durP2;ratioP2
57567;SDS011;43403;51.948;5.922;2023-04-01T00:00:30;3.55;;;1.35;;
57567;SDS011;43403;51.948;5.922;2023-04-01T00:02:57;4.88;;;1.80;;
57567;SDS011;43403;51.948;5.922;2023-04-01T00:05:23;8.02;;;1.80;;
57567;SDS011;43403;51.948;5.922;2023-04-01T00:07:52;3.58;;;1.70;;
57567;SDS011;43403;51.948;5.922;2023-04-01T00:10:19;4.32;;;1.60;;
57567;SDS011;43403;51.948;5.922;2023-04-01T00:12:45;9.98;;;1.60;;
57567;SDS011;43403;51.948;5.922;2023-04-01T00:15:12;6.88;;;2.10;;
57567;SDS011;43403;51.948;5.922;2023-04-01T00:17:38;7.22;;;1.77;;
57567;SDS011;43403;51.948;5.922;2023-04-01T00:20:05;5.47;;;1.88;;
57567;SDS011;43403;51.948;5.922;2023-04-01T00:22:33;4.13;;;1.80;;
57567;SDS011;43403;51.948;5.922;2023-04-01T00:25:00;5.22;;;1.92;;
57567;SDS011;43403;51.948;5.922;2023-04-01T00:27:26;5.07;;;1.70;;
57567;SDS011;43403;51.948;5.922;2023-04-01T00:29:52;5.35;;;2.00;;
57567;SDS011;43403;51.948;5.922;2023-04-01T00:32:19;7.85;;;2.70;;
57567;SDS011;43403;51.948;5.922;2023-04-01T00:34:45;6.10;;;2.42;;
57567;SDS011;43403;51.948;5.922;2023-04-01T00:37:12;4.70;;;2.33;;
57567;SDS011;43403;51.948;5.922;2023-04-01T00:39:38;6.80;;;2.97;;
57567;SDS011;43403;51.948;5.922;2023-04-01T00:42:04;7.68;;;2.80;;
57567;SDS011;43403;51.948;5.922;2023-04-01T00:44:32;6.75;;;3.30;;
57567;SDS011;43403;51.948;5.922;2023-04-01T00:47:01;5.60;;;3.15;;
57567;SDS011;43403;51.948;5.922;2023-04-01T00:49:40;5.57;;;3.22;;
57567;SDS011;43403;51.948;5.922;2023-04-01T00:52:08;5.07;;;2.92;;
57567;SDS011;43403;51.948;5.922;2023-04-01T00:54:36;6.63;;;3.92;;
57567;SDS011;43403;51.948;5.922;2023-04-01T00:57:05;6.88;;;4.00;;
57567;SDS011;43403;51.948;5.922;2023-04-01T00:59:33;6.43;;;4.15;;
57567;SDS011;43403;51.948;5.922;2023-04-01T01:02:01;7.00;;;4.10;;
57567;SDS011;43403;51.948;5.922;2023-04-01T01:04:29;8.70;;;4.50;;
57567;SDS011;43403;51.948;5.922;2023-04-01T01:07:07;6.90;;;5.13;;
57567;SDS011;43403;51.948;5.922;2023-04-01T01:09:52;11.75;;;5.63;;
57567;SDS011;43403;51.948;5.922;2023-04-01T01:12:26;8.07;;;5.68;;
57567;SDS011;43403;51.948;5.922;2023-04-01T01:28:05;10.10;;;6.32;;
57567;SDS011;43403;51.948;5.922;2023-04-01T01:30:41;13.25;;;7.93;;
57567;SDS011;43403;51.948;5.922;2023-04-01T01:35:56;11.82;;;7.78;;
57567;SDS011;43403;51.948;5.922;2023-04-01T01:38:24;9.43;;;7.15;;
57567;SDS011;43403;51.948;5.922;2023-04-01T01:40:52;13.48;;;9.23;;
57567;SDS011;43403;51.948;5.922;2023-04-01T01:43:24;11.45;;;8.02;;
57567;SDS011;43403;51.948;5.922;2023-04-01T01:45:54;14.25;;;8.70;;
57567;SDS011;43403;51.948;5.922;2023-04-01T01:48:22;17.33;;;9.60;;
57567;SDS011;43403;51.948;5.922;2023-04-01T01:50:49;15.45;;;8.88;;
57567;SDS011;43403;51.948;5.922;2023-04-01T01:53:16;12.75;;;7.97;;
57567;SDS011;43403;51.948;5.922;2023-04-01T01:55:43;11.95;;;7.97;;
57567;SDS011;43403;51.948;5.922;2023-04-01T01:58:12;10.73;;;7.22;;
57567;SDS011;43403;51.948;5.922;2023-04-01T02:00:40;14.00;;;7.90;;
57567;SDS011;43403;51.948;5.922;2023-04-01T02:03:08;10.52;;;6.13;;
57567;SDS011;43403;51.948;5.922;2023-04-01T02:05:34;8.32;;;4.85;;
57567;SDS011;43403;51.948;5.922;2023-04-01T02:08:09;10.73;;;6.97;;
57567;SDS011;43403;51.948;5.922;2023-04-01T02:10:39;12.23;;;5.22;;
57567;SDS011;43403;51.948;5.922;2023-04-01T02:13:15;11.38;;;5.28;;
57567;SDS011;43403;51.948;5.922;2023-04-01T02:15:42;12.82;;;5.13;;
57567;SDS011;43403;51.948;5.922;2023-04-01T02:18:11;12.88;;;4.85;;
57567;SDS011;43403;51.948;5.922;2023-04-01T02:20:39;11.38;;;5.25;;
57567;SDS011;43403;51.948;5.922;2023-04-01T02:23:06;14.55;;;4.70;;
57567;SDS011;43403;51.948;5.922;2023-04-01T02:25:35;14.10;;;5.97;;
57567;SDS011;43403;51.948;5.922;2023-04-01T02:28:03;13.90;;;6.20;;
57567;SDS011;43403;51.948;5.922;2023-04-01T02:30:30;10.45;;;4.95;;
57567;SDS011;43403;51.948;5.922;2023-04-01T02:32:57;11.70;;;5.23;;
57567;SDS011;43403;51.948;5.922;2023-04-01T02:35:25;13.55;;;5.03;;
57567;SDS011;43403;51.948;5.922;2023-04-01T02:37:52;13.10;;;4.57;;
57567;SDS011;43403;51.948;5.922;2023-04-01T02:40:19;17.20;;;5.53;;
57567;SDS011;43403;51.948;5.922;2023-04-01T02:42:47;11.07;;;5.00;;
57567;SDS011;43403;51.948;5.922;2023-04-01T02:45:14;11.98;;;4.68;;
57567;SDS011;43403;51.948;5.922;2023-04-01T02:47:41;12.13;;;6.22;;
57567;SDS011;43403;51.948;5.922;2023-04-01T02:50:07;11.57;;;5.38;;
57567;SDS011;43403;51.948;5.922;2023-04-01T02:52:34;11.75;;;5.78;;
57567;SDS011;43403;51.948;5.922;2023-04-01T02:55:01;9.27;;;4.85;;
57567;SDS011;43403;51.948;5.922;2023-04-01T02:57:27;9.13;;;4.70;;
57567;SDS011;43403;51.948;5.922;2023-04-01T02:59:54;9.93;;;4.20;;
57567;SDS011;43403;51.948;5.922;2023-04-01T03:02:20;6.53;;;3.90;;
57567;SDS011;43403;51.948;5.922;2023-04-01T03:04:47;8.00;;;3.92;;
57567;SDS011;43403;51.948;5.922;2023-04-01T03:07:13;7.90;;;3.92;;
57567;SDS011;43403;51.948;5.922;2023-04-01T03:09:40;5.93;;;3.28;;
57567;SDS011;43403;51.948;5.922;2023-04-01T03:12:06;6.60;;;3.88;;
57567;SDS011;43403;51.948;5.922;2023-04-01T03:14:33;7.40;;;3.60;;
57567;SDS011;43403;51.948;5.922;2023-04-01T03:16:59;5.38;;;3.42;;
57567;SDS011;43403;51.948;5.922;2023-04-01T03:19:26;9.07;;;3.22;;
57567;SDS011;43403;51.948;5.922;2023-04-01T03:21:53;5.28;;;3.45;;
57567;SDS011;43403;51.948;5.922;2023-04-01T03:24:19;7.63;;;3.83;;
57567;SDS011;43403;51.948;5.922;2023-04-01T03:26:46;6.40;;;3.50;;
57567;SDS011;43403;51.948;5.922;2023-04-01T03:29:13;7.00;;;3.35;;
57567;SDS011;43403;51.948;5.922;2023-04-01T03:34:08;5.78;;;3.42;;
57567;SDS011;43403;51.948;5.922;2023-04-01T03:36:34;5.80;;;3.35;;
57567;SDS011;43403;51.948;5.922;2023-04-01T03:39:01;4.90;;;3.08;;
57567;SDS011;43403;51.948;5.922;2023-04-01T03:41:27;6.13;;;3.15;;
57567;SDS011;43403;51.948;5.922;2023-04-01T03:43:54;4.32;;;3.20;;
57567;SDS011;43403;51.948;5.922;2023-04-01T03:46:20;4.93;;;3.08;;
57567;SDS011;43403;51.948;5.922;2023-04-01T03:48:47;7.35;;;3.10;;
57567;SDS011;43403;51.948;5.922;2023-04-01T03:51:13;4.47;;;3.17;;
57567;SDS011;43403;51.948;5.922;2023-04-01T03:53:40;5.68;;;3.42;;
57567;SDS011;43403;51.948;5.922;2023-04-01T03:56:07;5.30;;;3.75;;
57567;SDS011;43403;51.948;5.922;2023-04-01T03:58:34;6.40;;;3.85;;
57567;SDS011;43403;51.948;5.922;2023-04-01T04:01:01;4.72;;;3.70;;
57567;SDS011;43403;51.948;5.922;2023-04-01T04:03:27;7.45;;;3.80;;
57567;SDS011;43403;51.948;5.922;2023-04-01T04:05:54;6.75;;;4.13;;
57567;SDS011;43403;51.948;5.922;2023-04-01T04:08:22;5.47;;;3.80;;
57567;SDS011;43403;51.948;5.922;2023-04-01T04:10:54;8.30;;;3.92;;
57567;SDS011;43403;51.948;5.922;2023-04-01T04:13:20;6.25;;;3.60;;
57567;SDS011;43403;51.948;5.922;2023-04-01T04:15:47;6.50;;;4.10;;
57567;SDS011;43403;51.948;5.922;2023-04-01T04:18:13;5.90;;;3.88;;
57567;SDS011;43403;51.948;5.922;2023-04-01T04:20:44;6.00;;;3.85;;
57567;SDS011;43403;51.948;5.922;2023-04-01T04:23:11;6.57;;;4.15;;
57567;SDS011;43403;51.948;5.922;2023-04-01T04:25:38;7.25;;;5.05;;
57567;SDS011;43403;51.948;5.922;2023-04-01T04:28:04;7.95;;;5.32;;
57567;SDS011;43403;51.948;5.922;2023-04-01T04:30:30;9.48;;;5.10;;
57567;SDS011;43403;51.948;5.922;2023-04-01T04:32:57;8.20;;;5.43;;
57567;SDS011;43403;51.948;5.922;2023-04-01T04:35:23;9.18;;;6.28;;
57567;SDS011;43403;51.948;5.922;2023-04-01T04:37:49;8.57;;;5.82;;
57567;SDS011;43403;51.948;5.922;2023-04-01T04:40:16;11.68;;;6.72;;
57567;SDS011;43403;51.948;5.922;2023-04-01T04:42:42;9.25;;;6.25;;
57567;SDS011;43403;51.948;5.922;2023-04-01T04:45:09;11.38;;;6.93;;
57567;SDS011;43403;51.948;5.922;2023-04-01T04:47:39;9.70;;;5.65;;
57567;SDS011;43403;51.948;5.922;2023-04-01T04:50:05;10.18;;;7.15;;
57567;SDS011;43403;51.948;5.922;2023-04-01T04:52:32;9.93;;;7.30;;
57567;SDS011;43403;51.948;5.922;2023-04-01T04:54:59;10.02;;;6.70;;
57567;SDS011;43403;51.948;5.922;2023-04-01T04:57:26;13.50;;;8.18;;
57567;SDS011;43403;51.948;5.922;2023-04-01T04:59:52;13.68;;;8.30;;
57567;SDS011;43403;51.948;5.922;2023-04-01T05:02:19;13.73;;;8.23;;
57567;SDS011;43403;51.948;5.922;2023-04-01T05:04:45;11.45;;;8.00;;
57567;SDS011;43403;51.948;5.922;2023-04-01T05:07:13;11.63;;;7.72;;
57567;SDS011;43403;51.948;5.922;2023-04-01T05:09:40;11.73;;;7.90;;
57567;SDS011;43403;51.948;5.922;2023-04-01T05:12:06;12.48;;;8.20;;
57567;SDS011;43403;51.948;5.922;2023-04-01T05:14:33;14.13;;;8.48;;
57567;SDS011;43403;51.948;5.922;2023-04-01T05:16:59;14.70;;;9.02;;
57567;SDS011;43403;51.948;5.922;2023-04-01T05:19:26;13.50;;;9.48;;
57567;SDS011;43403;51.948;5.922;2023-04-01T05:21:52;13.10;;;9.00;;
57567;SDS011;43403;51.948;5.922;2023-04-01T05:24:19;12.63;;;8.05;;
57567;SDS011;43403;51.948;5.922;2023-04-01T05:26:45;12.75;;;9.05;;
57567;SDS011;43403;51.948;5.922;2023-04-01T05:29:12;16.63;;;9.40;;
57567;SDS011;43403;51.948;5.922;2023-04-01T05:31:38;14.30;;;9.15;;
57567;SDS011;43403;51.948;5.922;2023-04-01T05:34:05;12.77;;;9.07;;
57567;SDS011;43403;51.948;5.922;2023-04-01T05:36:31;12.18;;;9.55;;
57567;SDS011;43403;51.948;5.922;2023-04-01T05:38:58;14.25;;;10.35;;
57567;SDS011;43403;51.948;5.922;2023-04-01T05:41:24;14.82;;;10.27;;
57567;SDS011;43403;51.948;5.922;2023-04-01T05:43:51;13.30;;;9.80;;
57567;SDS011;43403;51.948;5.922;2023-04-01T05:46:17;17.30;;;11.05;;
57567;SDS011;43403;51.948;5.922;2023-04-01T05:48:44;13.68;;;9.55;;
57567;SDS011;43403;51.948;5.922;2023-04-01T05:51:14;14.18;;;9.93;;
57567;SDS011;43403;51.948;5.922;2023-04-01T05:53:42;15.10;;;9.82;;
57567;SDS011;43403;51.948;5.922;2023-04-01T05:56:09;17.25;;;9.85;;
57567;SDS011;43403;51.948;5.922;2023-04-01T05:58:36;14.43;;;9.35;;
57567;SDS011;43403;51.948;5.922;2023-04-01T06:01:06;13.18;;;8.57;;
57567;SDS011;43403;51.948;5.922;2023-04-01T06:03:40;11.70;;;7.88;;
57567;SDS011;43403;51.948;5.922;2023-04-01T06:06:13;11.60;;;7.68;;
57567;SDS011;43403;51.948;5.922;2023-04-01T06:08:41;14.30;;;7.25;;
57567;SDS011;43403;51.948;5.922;2023-04-01T06:14:28;11.93;;;6.85;;
57567;SDS011;43403;51.948;5.922;2023-04-01T06:19:08;10.73;;;5.95;;
57567;SDS011;43403;51.948;5.922;2023-04-01T06:24:33;14.55;;;7.40;;
57567;SDS011;43403;51.948;5.922;2023-04-01T06:27:16;14.82;;;7.38;;
57567;SDS011;43403;51.948;5.922;2023-04-01T06:29:50;15.73;;;7.30;;
57567;SDS011;43403;51.948;5.922;2023-04-01T06:40:09;18.08;;;8.57;;
57567;SDS011;43403;51.948;5.922;2023-04-01T06:42:45;15.85;;;8.18;;
57567;SDS011;43403;51.948;5.922;2023-04-01T06:50:30;15.15;;;7.47;;
57567;SDS011;43403;51.948;5.922;2023-04-01T06:57:53;12.27;;;6.88;;
57567;SDS011;43403;51.948;5.922;2023-04-01T07:00:37;11.20;;;5.53;;
57567;SDS011;43403;51.948;5.922;2023-04-01T07:03:08;9.70;;;5.13;;
57567;SDS011;43403;51.948;5.922;2023-04-01T07:05:36;7.72;;;4.85;;
57567;SDS011;43403;51.948;5.922;2023-04-01T07:08:04;8.23;;;4.40;;
57567;SDS011;43403;51.948;5.922;2023-04-01T07:12:58;8.50;;;4.07;;
57567;SDS011;43403;51.948;5.922;2023-04-01T07:15:30;8.50;;;3.83;;
57567;SDS011;43403;51.948;5.922;2023-04-01T07:18:12;7.30;;;3.55;;
57567;SDS011;43403;51.948;5.922;2023-04-01T07:20:42;5.95;;;3.25;;
57567;SDS011;43403;51.948;5.922;2023-04-01T07:23:11;6.35;;;3.25;;
57567;SDS011;43403;51.948;5.922;2023-04-01T07:25:43;5.43;;;2.85;;
57567;SDS011;43403;51.948;5.922;2023-04-01T07:28:15;7.70;;;2.85;;
57567;SDS011;43403;51.948;5.922;2023-04-01T07:33:36;4.60;;;2.42;;
57567;SDS011;43403;51.948;5.922;2023-04-01T07:44:00;3.67;;;2.10;;
57567;SDS011;43403;51.948;5.922;2023-04-01T07:46:40;3.42;;;2.05;;
57567;SDS011;43403;51.948;5.922;2023-04-01T07:54:21;3.42;;;1.65;;
57567;SDS011;43403;51.948;5.922;2023-04-01T07:59:43;2.90;;;1.50;;
57567;SDS011;43403;51.948;5.922;2023-04-01T08:10:32;2.28;;;1.60;;
57567;SDS011;43403;51.948;5.922;2023-04-01T08:13:13;2.50;;;1.55;;
57567;SDS011;43403;51.948;5.922;2023-04-01T08:23:15;3.05;;;1.70;;
57567;SDS011;43403;51.948;5.922;2023-04-01T08:25:48;2.05;;;1.58;;
57567;SDS011;43403;51.948;5.922;2023-04-01T08:28:19;2.20;;;1.50;;
57567;SDS011;43403;51.948;5.922;2023-04-01T08:31:33;2.53;;;1.33;;
57567;SDS011;43403;51.948;5.922;2023-04-01T08:33:33;1.42;;;1.25;;
57567;SDS011;43403;51.948;5.922;2023-04-01T08:36:03;1.48;;;1.02;;
57567;SDS011;43403;51.948;5.922;2023-04-01T08:38:36;2.15;;;1.10;;
57567;SDS011;43403;51.948;5.922;2023-04-01T08:48:53;1.30;;;0.98;;
57567;SDS011;43403;51.948;5.922;2023-04-01T09:07:21;2.90;;;1.33;;
57567;SDS011;43403;51.948;5.922;2023-04-01T09:09:55;1.48;;;1.20;;
57567;SDS011;43403;51.948;5.922;2023-04-01T09:12:38;1.85;;;1.40;;
57567;SDS011;43403;51.948;5.922;2023-04-01T09:18:15;2.45;;;1.30;;
57567;SDS011;43403;51.948;5.922;2023-04-01T09:36:41;2.53;;;1.42;;
57567;SDS011;43403;51.948;5.922;2023-04-01T09:41:51;2.42;;;1.27;;
57567;SDS011;43403;51.948;5.922;2023-04-01T09:47:26;2.75;;;1.60;;
57567;SDS011;43403;51.948;5.922;2023-04-01T09:49:55;2.60;;;1.27;;
57567;SDS011;43403;51.948;5.922;2023-04-01T09:55:02;2.55;;;1.60;;
57567;SDS011;43403;51.948;5.922;2023-04-01T10:02:50;3.22;;;1.67;;
57567;SDS011;43403;51.948;5.922;2023-04-01T10:05:43;6.00;;;2.85;;
57567;SDS011;43403;51.948;5.922;2023-04-01T10:11:18;3.10;;;1.70;;
57567;SDS011;43403;51.948;5.922;2023-04-01T10:16:26;6.35;;;1.80;;
57567;SDS011;43403;51.948;5.922;2023-04-01T10:29:14;3.72;;;2.22;;
57567;SDS011;43403;51.948;5.922;2023-04-01T10:37:10;6.35;;;3.63;;
57567;SDS011;43403;51.948;5.922;2023-04-01T10:39:56;6.28;;;4.15;;
57567;SDS011;43403;51.948;5.922;2023-04-01T10:42:49;7.78;;;4.70;;
57567;SDS011;43403;51.948;5.922;2023-04-01T11:08:50;8.80;;;5.97;;
57567;SDS011;43403;51.948;5.922;2023-04-01T11:19:04;11.18;;;6.00;;
57567;SDS011;43403;51.948;5.922;2023-04-01T11:29:27;8.68;;;5.53;;
57567;SDS011;43403;51.948;5.922;2023-04-01T11:39:51;6.75;;;3.97;;
57567;SDS011;43403;51.948;5.922;2023-04-01T11:50:21;2.38;;;1.55;;
57567;SDS011;43403;51.948;5.922;2023-04-01T11:56:17;2.10;;;1.20;;
57567;SDS011;43403;51.948;5.922;2023-04-01T12:17:27;2.42;;;0.98;;
57567;SDS011;43403;51.948;5.922;2023-04-01T12:20:01;2.50;;;1.08;;
57567;SDS011;43403;51.948;5.922;2023-04-01T12:28:10;5.97;;;1.20;;
57567;SDS011;43403;51.948;5.922;2023-04-01T12:33:36;1.73;;;1.00;;
57567;SDS011;43403;51.948;5.922;2023-04-01T12:52:31;2.75;;;1.50;;
57567;SDS011;43403;51.948;5.922;2023-04-01T13:05:59;2.40;;;1.92;;
57567;SDS011;43403;51.948;5.922;2023-04-01T13:13:37;3.25;;;1.95;;
57567;SDS011;43403;51.948;5.922;2023-04-01T13:18:43;3.35;;;2.05;;
57567;SDS011;43403;51.948;5.922;2023-04-01T13:21:20;3.00;;;2.30;;
57567;SDS011;43403;51.948;5.922;2023-04-01T13:24:02;3.25;;;2.10;;
57567;SDS011;43403;51.948;5.922;2023-04-01T13:29:18;4.43;;;2.47;;
57567;SDS011;43403;51.948;5.922;2023-04-01T13:34:16;3.45;;;2.38;;
57567;SDS011;43403;51.948;5.922;2023-04-01T13:44:48;3.35;;;2.35;;
57567;SDS011;43403;51.948;5.922;2023-04-01T13:50:08;3.50;;;1.98;;
57567;SDS011;43403;51.948;5.922;2023-04-01T13:55:44;3.47;;;1.92;;
57567;SDS011;43403;51.948;5.922;2023-04-01T14:00:40;4.90;;;2.25;;
57567;SDS011;43403;51.948;5.922;2023-04-01T14:13:18;2.65;;;1.80;;
57567;SDS011;43403;51.948;5.922;2023-04-01T14:20:53;1.17;;;0.93;;
57567;SDS011;43403;51.948;5.922;2023-04-01T14:28:57;1.80;;;1.00;;
57567;SDS011;43403;51.948;5.922;2023-04-01T14:34:34;1.83;;;1.00;;
57567;SDS011;43403;51.948;5.922;2023-04-01T14:37:17;3.20;;;1.08;;
57567;SDS011;43403;51.948;5.922;2023-04-01T14:40:03;2.95;;;1.17;;
57567;SDS011;43403;51.948;5.922;2023-04-01T14:50:06;2.30;;;1.38;;
57567;SDS011;43403;51.948;5.922;2023-04-01T14:52:36;3.50;;;1.30;;
57567;SDS011;43403;51.948;5.922;2023-04-01T14:55:20;1.80;;;1.23;;
57567;SDS011;43403;51.948;5.922;2023-04-01T14:58:09;1.80;;;1.27;;
57567;SDS011;43403;51.948;5.922;2023-04-01T15:03:15;2.17;;;1.40;;
57567;SDS011;43403;51.948;5.922;2023-04-01T15:08:32;1.67;;;1.30;;
57567;SDS011;43403;51.948;5.922;2023-04-01T15:13:53;1.63;;;1.40;;
57567;SDS011;43403;51.948;5.922;2023-04-01T15:16:46;3.58;;;1.40;;
57567;SDS011;43403;51.948;5.922;2023-04-01T15:21:54;1.67;;;1.20;;
57567;SDS011;43403;51.948;5.922;2023-04-01T15:37:37;1.98;;;1.20;;
57567;SDS011;43403;51.948;5.922;2023-04-01T15:40:15;1.95;;;1.70;;
57567;SDS011;43403;51.948;5.922;2023-04-01T15:42:51;2.58;;;1.80;;
57567;SDS011;43403;51.948;5.922;2023-04-01T15:47:58;3.33;;;2.30;;
57567;SDS011;43403;51.948;5.922;2023-04-01T15:55:27;3.83;;;2.78;;
57567;SDS011;43403;51.948;5.922;2023-04-01T15:58:06;3.58;;;2.90;;
57567;SDS011;43403;51.948;5.922;2023-04-01T16:06:16;3.60;;;2.70;;
57567;SDS011;43403;51.948;5.922;2023-04-01T16:14:05;4.65;;;2.72;;
57567;SDS011;43403;51.948;5.922;2023-04-01T16:19:07;3.47;;;2.90;;
57567;SDS011;43403;51.948;5.922;2023-04-01T16:21:54;3.72;;;2.95;;
57567;SDS011;43403;51.948;5.922;2023-04-01T16:24:31;3.78;;;2.90;;
57567;SDS011;43403;51.948;5.922;2023-04-01T16:27:16;3.58;;;3.15;;
57567;SDS011;43403;51.948;5.922;2023-04-01T16:29:48;7.00;;;4.38;;
57567;SDS011;43403;51.948;5.922;2023-04-01T16:37:54;3.25;;;2.60;;
57567;SDS011;43403;51.948;5.922;2023-04-01T16:40:26;4.15;;;3.55;;
57567;SDS011;43403;51.948;5.922;2023-04-01T16:53:18;3.97;;;3.05;;
57567;SDS011;43403;51.948;5.922;2023-04-01T16:58:14;4.25;;;3.13;;
57567;SDS011;43403;51.948;5.922;2023-04-01T17:00:47;3.58;;;3.00;;
57567;SDS011;43403;51.948;5.922;2023-04-01T17:03:28;5.32;;;3.25;;
57567;SDS011;43403;51.948;5.922;2023-04-01T17:06:40;3.50;;;2.80;;
57567;SDS011;43403;51.948;5.922;2023-04-01T17:08:53;3.88;;;3.20;;
57567;SDS011;43403;51.948;5.922;2023-04-01T17:11:26;3.78;;;3.05;;
57567;SDS011;43403;51.948;5.922;2023-04-01T17:16:28;4.10;;;3.00;;
57567;SDS011;43403;51.948;5.922;2023-04-01T17:26:42;4.68;;;3.92;;
57567;SDS011;43403;51.948;5.922;2023-04-01T17:42:24;3.80;;;3.38;;
57567;SDS011;43403;51.948;5.922;2023-04-01T17:45:03;4.13;;;3.40;;
57567;SDS011;43403;51.948;5.922;2023-04-01T17:47:52;4.20;;;3.40;;
57567;SDS011;43403;51.948;5.922;2023-04-01T17:50:28;6.30;;;4.10;;
57567;SDS011;43403;51.948;5.922;2023-04-01T17:58:19;5.13;;;4.20;;
57567;SDS011;43403;51.948;5.922;2023-04-01T18:08:42;5.60;;;4.30;;
57567;SDS011;43403;51.948;5.922;2023-04-01T18:11:36;5.25;;;4.47;;
57567;SDS011;43403;51.948;5.922;2023-04-01T18:21:50;4.93;;;4.07;;
57567;SDS011;43403;51.948;5.922;2023-04-01T18:24:21;4.63;;;4.07;;
57567;SDS011;43403;51.948;5.922;2023-04-01T18:26:50;5.38;;;4.57;;
57567;SDS011;43403;51.948;5.922;2023-04-01T18:31:49;5.40;;;4.53;;
57567;SDS011;43403;51.948;5.922;2023-04-01T18:34:19;5.93;;;4.40;;
57567;SDS011;43403;51.948;5.922;2023-04-01T18:36:54;7.85;;;4.88;;
57567;SDS011;43403;51.948;5.922;2023-04-01T18:39:38;5.45;;;4.45;;
57567;SDS011;43403;51.948;5.922;2023-04-01T18:42:17;6.00;;;5.13;;
57567;SDS011;43403;51.948;5.922;2023-04-01T18:52:36;7.57;;;6.65;;
57567;SDS011;43403;51.948;5.922;2023-04-01T18:57:49;7.70;;;6.75;;
57567;SDS011;43403;51.948;5.922;2023-04-01T19:00:27;7.13;;;6.43;;
57567;SDS011;43403;51.948;5.922;2023-04-01T19:05:32;7.15;;;5.43;;
57567;SDS011;43403;51.948;5.922;2023-04-01T19:13:27;6.20;;;5.20;;
57567;SDS011;43403;51.948;5.922;2023-04-01T19:18:50;7.35;;;6.15;;
57567;SDS011;43403;51.948;5.922;2023-04-01T19:21:33;7.45;;;5.90;;
57567;SDS011;43403;51.948;5.922;2023-04-01T19:26:42;5.80;;;4.88;;
57567;SDS011;43403;51.948;5.922;2023-04-01T19:31:49;5.95;;;5.28;;
57567;SDS011;43403;51.948;5.922;2023-04-01T19:37:32;7.47;;;6.03;;
57567;SDS011;43403;51.948;5.922;2023-04-01T19:42:39;5.68;;;4.97;;
57567;SDS011;43403;51.948;5.922;2023-04-01T19:48:05;6.43;;;4.85;;
57567;SDS011;43403;51.948;5.922;2023-04-01T19:50:44;5.15;;;4.65;;
57567;SDS011;43403;51.948;5.922;2023-04-01T19:58:33;5.68;;;4.68;;
57567;SDS011;43403;51.948;5.922;2023-04-01T20:01:01;5.00;;;3.92;;
57567;SDS011;43403;51.948;5.922;2023-04-01T20:06:16;6.15;;;5.35;;
57567;SDS011;43403;51.948;5.922;2023-04-01T20:13:53;7.03;;;6.32;;
57567;SDS011;43403;51.948;5.922;2023-04-01T20:16:22;9.38;;;6.68;;
57567;SDS011;43403;51.948;5.922;2023-04-01T20:19:04;7.10;;;5.93;;
57567;SDS011;43403;51.948;5.922;2023-04-01T20:24:15;7.45;;;6.07;;
57567;SDS011;43403;51.948;5.922;2023-04-01T20:26:44;6.63;;;5.85;;
57567;SDS011;43403;51.948;5.922;2023-04-01T20:29:17;7.50;;;6.60;;
57567;SDS011;43403;51.948;5.922;2023-04-01T20:31:53;8.98;;;6.13;;
57567;SDS011;43403;51.948;5.922;2023-04-01T20:49:51;7.32;;;6.38;;
57567;SDS011;43403;51.948;5.922;2023-04-01T20:54:57;7.25;;;6.38;;
57567;SDS011;43403;51.948;5.922;2023-04-01T20:57:31;8.57;;;7.38;;
57567;SDS011;43403;51.948;5.922;2023-04-01T21:02:52;11.57;;;8.23;;
57567;SDS011;43403;51.948;5.922;2023-04-01T21:15:32;9.75;;;7.15;;
57567;SDS011;43403;51.948;5.922;2023-04-01T21:20:56;9.45;;;7.03;;
57567;SDS011;43403;51.948;5.922;2023-04-01T21:28:55;8.70;;;7.35;;
57567;SDS011;43403;51.948;5.922;2023-04-01T21:41:56;8.68;;;6.88;;
57567;SDS011;43403;51.948;5.922;2023-04-01T21:44:35;9.15;;;6.78;;
57567;SDS011;43403;51.948;5.922;2023-04-01T21:49:49;7.97;;;5.85;;
57567;SDS011;43403;51.948;5.922;2023-04-01T21:53:05;6.90;;;5.78;;
57567;SDS011;43403;51.948;5.922;2023-04-01T21:58:00;6.55;;;5.40;;
57567;SDS011;43403;51.948;5.922;2023-04-01T22:00:36;8.05;;;6.40;;
57567;SDS011;43403;51.948;5.922;2023-04-01T22:03:16;7.07;;;5.73;;
57567;SDS011;43403;51.948;5.922;2023-04-01T22:06:04;8.20;;;5.80;;
57567;SDS011;43403;51.948;5.922;2023-04-01T22:13:58;7.43;;;5.72;;
57567;SDS011;43403;51.948;5.922;2023-04-01T22:21:42;7.80;;;5.18;;
57567;SDS011;43403;51.948;5.922;2023-04-01T22:24:29;5.25;;;4.68;;
57567;SDS011;43403;51.948;5.922;2023-04-01T22:32:12;7.32;;;5.50;;
57567;SDS011;43403;51.948;5.922;2023-04-01T22:34:46;5.90;;;4.78;;
57567;SDS011;43403;51.948;5.922;2023-04-01T22:37:37;9.07;;;5.93;;
57567;SDS011;43403;51.948;5.922;2023-04-01T22:40:14;6.10;;;5.20;;
57567;SDS011;43403;51.948;5.922;2023-04-01T22:42:44;7.57;;;5.43;;
57567;SDS011;43403;51.948;5.922;2023-04-01T22:45:24;7.35;;;5.88;;
57567;SDS011;43403;51.948;5.922;2023-04-01T22:53:05;8.65;;;6.13;;
57567;SDS011;43403;51.948;5.922;2023-04-01T22:55:35;6.60;;;5.22;;
57567;SDS011;43403;51.948;5.922;2023-04-01T22:58:19;8.38;;;5.97;;
57567;SDS011;43403;51.948;5.922;2023-04-01T23:00:47;7.72;;;5.45;;
57567;SDS011;43403;51.948;5.922;2023-04-01T23:03:16;7.25;;;5.30;;
57567;SDS011;43403;51.948;5.922;2023-04-01T23:05:51;6.97;;;5.22;;
57567;SDS011;43403;51.948;5.922;2023-04-01T23:11:01;9.30;;;5.55;;
57567;SDS011;43403;51.948;5.922;2023-04-01T23:13:35;7.93;;;5.82;;
57567;SDS011;43403;51.948;5.922;2023-04-01T23:16:04;7.60;;;6.00;;
57567;SDS011;43403;51.948;5.922;2023-04-01T23:23:36;7.07;;;4.63;;
57567;SDS011;43403;51.948;5.922;2023-04-01T23:28:45;6.03;;;5.05;;
57567;SDS011;43403;51.948;5.922;2023-04-01T23:31:25;7.20;;;5.50;;
57567;SDS011;43403;51.948;5.922;2023-04-01T23:33:55;7.80;;;5.18;;
57567;SDS011;43403;51.948;5.922;2023-04-01T23:36:22;7.55;;;5.85;;
57567;SDS011;43403;51.948;5.922;2023-04-01T23:38:49;10.07;;;6.57;;
57567;SDS011;43403;51.948;5.922;2023-04-01T23:41:20;8.85;;;7.32;;
57567;SDS011;43403;51.948;5.922;2023-04-01T23:43:57;8.63;;;7.28;;
57567;SDS011;43403;51.948;5.922;2023-04-01T23:46:24;7.72;;;6.70;;
57567;SDS011;43403;51.948;5.922;2023-04-01T23:48:51;9.30;;;6.47;;
57567;SDS011;43403;51.948;5.922;2023-04-01T23:51:20;10.43;;;6.65;;
57567;SDS011;43403;51.948;5.922;2023-04-01T23:53:48;9.20;;;6.95;;
57567;SDS011;43403;51.948;5.922;2023-04-01T23:56:22;8.63;;;6.95;;
57567;SDS011;43403;51.948;5.922;2023-04-01T23:58:49;11.35;;;7.72;;
